createdAt,value
2018-04-20T00:02:18.378Z,95391.81
2018-04-20T00:04:45.010Z,95397.27
2018-04-20T00:07:11.725Z,95388.43
2018-04-20T00:09:38.396Z,95388.17
2018-04-20T00:12:05.028Z,95378.58
2018-04-20T00:14:31.667Z,95379.59
2018-04-20T00:16:58.297Z,95384.27
2018-04-20T00:19:24.994Z,95373.33
2018-04-20T00:21:51.641Z,95374.18
2018-04-20T00:24:18.359Z,95375.83
2018-04-20T00:26:45.041Z,95373.95
2018-04-20T00:29:11.684Z,95373.83
2018-04-20T00:31:38.313Z,95380.78
2018-04-20T00:34:04.994Z,95377.62
2018-04-20T00:36:31.735Z,95374.37
2018-04-20T00:38:58.332Z,95381.82
2018-04-20T00:41:24.969Z,95375.60
2018-04-20T00:43:51.659Z,95372.98
2018-04-20T00:46:18.287Z,95374.65
2018-04-20T00:48:44.924Z,95375.28
2018-04-20T00:51:11.604Z,95369.84
2018-04-20T00:53:38.240Z,95363.56
2018-04-20T00:56:04.925Z,95362.30
2018-04-20T00:58:31.651Z,95366.36
2018-04-20T01:00:58.295Z,95354.88
2018-04-20T01:03:24.898Z,95368.61
2018-04-20T01:05:51.576Z,95367.63
2018-04-20T01:08:18.204Z,95368.13
2018-04-20T01:10:44.854Z,95366.77
2018-04-20T01:13:11.577Z,95368.80
2018-04-20T01:15:38.181Z,95368.80
2018-04-20T01:18:04.809Z,95367.53
2018-04-20T01:20:31.535Z,95370.06
2018-04-20T01:22:58.174Z,95369.94
2018-04-20T01:25:24.808Z,95372.11
2018-04-20T01:27:51.414Z,95371.45
2018-04-20T01:30:18.094Z,95369.17
2018-04-20T01:32:44.809Z,95370.36
2018-04-20T01:35:11.406Z,95365.06
2018-04-20T01:37:38.104Z,95363.17
2018-04-20T01:40:04.744Z,95349.95
2018-04-20T01:42:31.378Z,95358.90
2018-04-20T01:44:58.061Z,95353.47
2018-04-20T01:47:24.807Z,95350.94
2018-04-20T01:49:51.499Z,95345.13
2018-04-20T01:52:18.162Z,95336.95
2018-04-20T01:54:44.801Z,95328.61
2018-04-20T01:57:11.437Z,95332.02
2018-04-20T01:59:38.156Z,95333.89
2018-04-20T02:02:04.792Z,95328.87
2018-04-20T02:04:31.500Z,95321.16
2018-04-20T02:06:58.138Z,95325.48
2018-04-20T02:09:24.742Z,95332.70
2018-04-20T02:11:51.423Z,95332.20
2018-04-20T02:14:18.113Z,95325.38
2018-04-20T02:16:44.719Z,95311.47
2018-04-20T02:19:11.407Z,95316.32
2018-04-20T02:21:38.034Z,95315.00
2018-04-20T02:24:04.747Z,95317.71
2018-04-20T02:26:31.357Z,95310.64
2018-04-20T02:28:58.070Z,95305.84
2018-04-20T02:31:24.666Z,95313.29
2018-04-20T02:33:51.379Z,95314.17
2018-04-20T02:36:18.062Z,95313.44
2018-04-20T02:38:44.659Z,95314.17
2018-04-20T02:41:11.381Z,95318.62
2018-04-20T02:43:37.978Z,95313.41
2018-04-20T02:46:04.681Z,95310.44
2018-04-20T02:48:31.318Z,95311.32
2018-04-20T02:50:57.945Z,95309.17
2018-04-20T02:53:24.609Z,95313.59
2018-04-20T02:55:51.290Z,95311.05
2018-04-20T02:58:17.956Z,95320.03
2018-04-20T03:00:44.640Z,95308.80
2018-04-20T03:03:11.285Z,95309.83
2018-04-20T03:05:37.924Z,95307.77
2018-04-20T03:08:04.644Z,95301.70
2018-04-20T03:10:31.383Z,95295.67
2018-04-20T03:12:57.964Z,95294.38
2018-04-20T03:15:24.653Z,95291.50
2018-04-20T03:17:51.342Z,95293.05
2018-04-20T03:20:18.036Z,95283.47
2018-04-20T03:22:44.671Z,95282.69
2018-04-20T03:25:11.336Z,95288.72
2018-04-20T03:27:38.027Z,95283.70
2018-04-20T03:30:04.633Z,95292.23
2018-04-20T03:32:31.326Z,95281.76
2018-04-20T03:34:57.963Z,95286.98
2018-04-20T03:37:24.679Z,95281.20
2018-04-20T03:39:51.309Z,95284.63
2018-04-20T03:42:18.713Z,95287.31
2018-04-20T03:44:45.346Z,95284.38
2018-04-20T03:47:12.073Z,95277.44
2018-04-20T03:49:38.675Z,95274.53
2018-04-20T03:52:05.313Z,95274.51
2018-04-20T03:54:31.953Z,95280.47
2018-04-20T03:56:58.620Z,95281.20
2018-04-20T03:59:25.275Z,95290.26
2018-04-20T04:01:51.913Z,95286.50
2018-04-20T04:04:18.595Z,95290.73
2018-04-20T04:06:45.307Z,95287.77
2018-04-20T04:09:11.948Z,95292.53
2018-04-20T04:11:38.642Z,95293.32
2018-04-20T04:14:05.276Z,95290.64
2018-04-20T04:16:31.911Z,95289.00
2018-04-20T04:18:58.566Z,95297.18
2018-04-20T04:21:25.224Z,95291.82
2018-04-20T04:23:51.870Z,95294.15
2018-04-20T04:26:18.507Z,95297.64
2018-04-20T04:28:45.223Z,95303.44
2018-04-20T04:31:11.895Z,95298.14
2018-04-20T04:33:39.852Z,95298.63
2018-04-20T04:36:05.192Z,95295.41
2018-04-20T04:38:31.803Z,95293.72
2018-04-20T04:40:58.531Z,95296.42
2018-04-20T04:43:25.134Z,95296.45
2018-04-20T04:45:51.771Z,95286.09
2018-04-20T04:48:18.413Z,95281.02
2018-04-20T04:50:45.042Z,95278.14
2018-04-20T04:53:11.719Z,95273.09
2018-04-20T04:55:38.319Z,95262.16
2018-04-20T04:58:04.997Z,95268.33
2018-04-20T05:00:31.685Z,95269.08
2018-04-20T05:02:58.384Z,95261.98
2018-04-20T05:05:25.036Z,95258.58
2018-04-20T05:07:51.686Z,95266.02
2018-04-20T05:10:18.371Z,95261.86
2018-04-20T05:12:45.050Z,95262.61
2018-04-20T05:15:11.655Z,95263.82
2018-04-20T05:17:38.283Z,95269.78
2018-04-20T05:20:04.925Z,95267.98
2018-04-20T05:22:31.562Z,95261.02
2018-04-20T05:24:58.257Z,95256.94
2018-04-20T05:27:24.930Z,95259.12
2018-04-20T05:29:51.657Z,95254.60
2018-04-20T05:32:18.331Z,95255.93
2018-04-20T05:34:44.992Z,95255.70
2018-04-20T05:37:11.651Z,95261.52
2018-04-20T05:39:38.374Z,95263.16
2018-04-20T05:42:04.993Z,95264.45
2018-04-20T05:44:31.708Z,95256.30
2018-04-20T05:46:58.313Z,95260.19
2018-04-20T05:49:25.027Z,95253.47
2018-04-20T05:51:51.690Z,95248.95
2018-04-20T05:54:18.356Z,95254.63
2018-04-20T05:56:44.974Z,95255.13
2018-04-20T05:59:11.698Z,95254.36
2018-04-20T06:01:38.337Z,95260.16
2018-04-20T06:04:04.972Z,95256.14
2018-04-20T06:06:31.740Z,95255.89
2018-04-20T06:08:58.399Z,95263.12
2018-04-20T06:11:25.044Z,95254.70
2018-04-20T06:13:51.748Z,95256.96
2018-04-20T06:16:18.377Z,95264.83
2018-04-20T06:18:45.053Z,95264.42
2018-04-20T06:21:11.720Z,95263.28
2018-04-20T06:23:38.442Z,95265.84
2018-04-20T06:26:05.069Z,95257.12
2018-04-20T06:28:31.717Z,95268.71
2018-04-20T06:30:58.385Z,95271.84
2018-04-20T06:33:25.119Z,95268.93
2018-04-20T06:35:51.747Z,95274.01
2018-04-20T06:38:18.474Z,95273.91
2018-04-20T06:40:45.160Z,95276.34
2018-04-20T06:43:11.862Z,95270.56
2018-04-20T06:45:38.532Z,95273.30
2018-04-20T06:48:05.190Z,95276.80
2018-04-20T06:50:31.843Z,95275.75
2018-04-20T06:52:58.521Z,95276.73
2018-04-20T06:55:25.185Z,95271.12
2018-04-20T06:57:51.832Z,95277.23
2018-04-20T07:00:18.553Z,95277.06
2018-04-20T07:02:45.340Z,95273.95
2018-04-20T07:05:11.989Z,95273.87
2018-04-20T07:07:38.636Z,95270.75
2018-04-20T07:10:05.373Z,95278.11
2018-04-20T07:12:32.006Z,95271.31
2018-04-20T07:14:58.695Z,95278.56
2018-04-20T07:17:25.338Z,95277.55
2018-04-20T07:19:52.039Z,95281.05
2018-04-20T07:22:18.674Z,95283.20
2018-04-20T07:24:45.484Z,95294.49
2018-04-20T07:27:12.104Z,95294.95
2018-04-20T07:29:39.889Z,95294.14
2018-04-20T07:32:06.554Z,95294.28
2018-04-20T07:34:33.167Z,95303.94
2018-04-20T07:36:59.827Z,95306.86
2018-04-20T07:39:26.475Z,95311.59
2018-04-20T07:41:53.107Z,95315.27
2018-04-20T07:44:19.798Z,95314.73
2018-04-20T07:46:46.442Z,95310.92
2018-04-20T07:49:13.168Z,95311.59
2018-04-20T07:51:39.759Z,95316.92
2018-04-20T07:54:06.467Z,95319.97
2018-04-20T07:56:33.123Z,95325.78
2018-04-20T07:58:59.764Z,95334.52
2018-04-20T08:01:26.429Z,95332.58
2018-04-20T08:03:53.043Z,95339.59
2018-04-20T08:06:19.733Z,95340.98
2018-04-20T08:08:46.381Z,95343.84
2018-04-20T08:11:13.101Z,95338.87
2018-04-20T08:13:39.738Z,95344.96
2018-04-20T08:16:06.454Z,95343.95
2018-04-20T08:18:33.091Z,95340.85
2018-04-20T08:20:59.700Z,95344.80
2018-04-20T08:23:26.355Z,95343.03
2018-04-20T08:25:53.071Z,95334.99
2018-04-20T08:28:19.785Z,95330.27
2018-04-20T08:30:46.425Z,95338.47
2018-04-20T08:33:13.074Z,95339.60
2018-04-20T08:35:43.640Z,95328.09
2018-04-20T08:38:10.340Z,95336.13
2018-04-20T08:40:36.961Z,95327.38
2018-04-20T08:43:03.605Z,95336.14
2018-04-20T08:45:30.284Z,95335.37
2018-04-20T08:47:56.941Z,95337.23
2018-04-20T08:50:23.570Z,95332.48
2018-04-20T08:52:50.219Z,95329.96
2018-04-20T08:55:16.888Z,95330.45
2018-04-20T08:57:43.491Z,95327.60
2018-04-20T09:00:10.190Z,95329.55
2018-04-20T09:02:36.782Z,95328.16
2018-04-20T09:05:03.459Z,95329.81
2018-04-20T09:07:30.079Z,95333.58
2018-04-20T09:09:56.712Z,95323.35
2018-04-20T09:12:23.433Z,95335.27
2018-04-20T09:14:50.116Z,95330.02
2018-04-20T09:17:16.743Z,95331.04
2018-04-20T09:19:43.378Z,95323.88
2018-04-20T09:22:10.045Z,95322.66
2018-04-20T09:24:36.724Z,95327.59
2018-04-20T09:27:03.351Z,95327.28
2018-04-20T09:29:29.954Z,95322.01
2018-04-20T09:31:56.653Z,95327.83
2018-04-20T09:34:23.300Z,95322.50
2018-04-20T09:36:49.910Z,95330.65
2018-04-20T09:39:16.544Z,95327.78
2018-04-20T09:41:43.196Z,95326.70
2018-04-20T09:44:09.839Z,95319.73
2018-04-20T09:46:36.524Z,95318.55
2018-04-20T09:49:04.803Z,95317.55
2018-04-20T09:51:29.916Z,95314.61
2018-04-20T09:53:56.611Z,95314.18
2018-04-20T09:56:23.215Z,95318.63
2018-04-20T09:58:49.870Z,95320.52
2018-04-20T10:01:16.506Z,95321.97
2018-04-20T10:03:43.178Z,95322.28
2018-04-20T10:06:09.847Z,95322.60
2018-04-20T10:08:36.652Z,95319.76
2018-04-20T10:11:03.267Z,95320.84
2018-04-20T10:13:29.951Z,95324.94
2018-04-20T10:15:56.634Z,95321.47
2018-04-20T10:18:23.237Z,95324.44
2018-04-20T10:20:49.903Z,95321.77
2018-04-20T10:23:16.522Z,95325.95
2018-04-20T10:25:43.192Z,95327.05
2018-04-20T10:28:10.024Z,95328.69
2018-04-20T10:30:36.688Z,95325.46
2018-04-20T10:33:03.339Z,95324.56
2018-04-20T10:35:29.973Z,95329.33
2018-04-20T10:37:56.624Z,95333.58
2018-04-20T10:40:24.284Z,95334.33
2018-04-20T10:42:50.935Z,95335.34
2018-04-20T10:45:17.605Z,95331.80
2018-04-20T10:47:44.385Z,95336.16
2018-04-20T10:50:11.038Z,95336.89
2018-04-20T10:52:38.808Z,95333.69
2018-04-20T10:55:05.405Z,95332.12
2018-04-20T10:57:32.063Z,95336.80
2018-04-20T10:59:58.771Z,95342.32
2018-04-20T11:02:25.451Z,95340.37
2018-04-20T11:04:52.089Z,95343.92
2018-04-20T11:07:18.951Z,95340.29
2018-04-20T11:09:45.586Z,95348.95
2018-04-20T11:12:12.243Z,95345.20
2018-04-20T11:14:38.895Z,95342.21
2018-04-20T11:17:05.634Z,95352.45
2018-04-20T11:19:32.278Z,95348.87
2018-04-20T11:21:59.006Z,95355.03
2018-04-20T11:24:25.699Z,95356.28
2018-04-20T11:26:52.368Z,95356.95
2018-04-20T11:29:19.057Z,95356.89
2018-04-20T11:31:45.735Z,95377.99
2018-04-20T11:34:12.456Z,95381.28
2018-04-20T11:36:39.182Z,95380.73
2018-04-20T11:39:05.841Z,95381.16
2018-04-20T11:41:32.494Z,95378.05
2018-04-20T11:43:59.561Z,95383.26
2018-04-20T11:46:26.165Z,95378.48
2018-04-20T11:48:52.796Z,95385.88
2018-04-20T11:51:19.457Z,95380.91
2018-04-20T11:53:46.099Z,95376.60
2018-04-20T11:56:12.741Z,95388.03
2018-04-20T11:58:42.390Z,95387.00
2018-04-20T12:01:09.029Z,95397.41
2018-04-20T12:03:35.680Z,95397.53
2018-04-20T12:06:02.364Z,95404.77
2018-04-20T12:08:28.984Z,95403.28
2018-04-20T12:10:55.643Z,95406.86
2018-04-20T12:13:22.297Z,95399.56
2018-04-20T12:15:48.981Z,95397.41
2018-04-20T12:18:15.617Z,95400.72
2018-04-20T12:20:42.255Z,95395.14
2018-04-20T12:23:08.909Z,95397.73
2018-04-20T12:25:35.600Z,95402.15
2018-04-20T12:28:02.248Z,95390.55
2018-04-20T12:30:28.854Z,95406.39
2018-04-20T12:32:55.559Z,95398.28
2018-04-20T12:35:22.205Z,95395.39
2018-04-20T12:37:48.882Z,95402.16
2018-04-20T12:40:15.503Z,95398.44
2018-04-20T12:42:42.175Z,95395.61
2018-04-20T12:45:08.823Z,95393.84
2018-04-20T12:47:35.455Z,95386.92
2018-04-20T12:50:02.121Z,95383.76
2018-04-20T12:52:28.786Z,95387.23
2018-04-20T12:54:55.443Z,95380.41
2018-04-20T12:57:23.189Z,95375.64
2018-04-20T12:59:49.769Z,95378.25
2018-04-20T13:02:16.444Z,95373.11
2018-04-20T13:04:43.117Z,95383.12
2018-04-20T13:07:09.760Z,95383.70
2018-04-20T13:09:36.398Z,95375.65
2018-04-20T13:12:03.194Z,95378.77
2018-04-20T13:14:29.848Z,95374.13
2018-04-20T13:16:56.457Z,95372.77
2018-04-20T13:19:23.140Z,95379.95
2018-04-20T13:21:50.794Z,95374.43
2018-04-20T13:24:17.426Z,95375.88
2018-04-20T13:26:44.074Z,95377.80
2018-04-20T13:29:10.750Z,95377.30
2018-04-20T13:31:37.423Z,95371.78
2018-04-20T13:34:04.056Z,95373.92
2018-04-20T13:36:30.725Z,95380.52
2018-04-20T13:38:57.339Z,95374.83
2018-04-20T13:41:24.002Z,95383.40
2018-04-20T13:43:50.643Z,95376.86
2018-04-20T13:46:17.244Z,95378.75
2018-04-20T13:48:43.916Z,95374.23
2018-04-20T13:51:10.562Z,95382.96
2018-04-20T13:53:37.237Z,95382.27
2018-04-20T13:56:03.851Z,95380.37
2018-04-20T13:58:30.499Z,95373.05
2018-04-20T14:00:57.177Z,95379.17
2018-04-20T14:03:23.841Z,95382.83
2018-04-20T14:05:50.613Z,95379.80
2018-04-20T14:08:17.246Z,95380.62
2018-04-20T14:10:43.850Z,95381.63
2018-04-20T14:13:10.529Z,95382.96
2018-04-20T14:15:37.197Z,95376.66
2018-04-20T14:18:03.807Z,95375.48
2018-04-20T14:20:30.487Z,95384.53
2018-04-20T14:22:57.177Z,95385.39
2018-04-20T14:25:23.833Z,95387.52
2018-04-20T14:27:50.469Z,95388.02
2018-04-20T14:30:17.137Z,95389.72
2018-04-20T14:32:43.814Z,95387.89
2018-04-20T14:35:10.443Z,95391.17
2018-04-20T14:37:37.083Z,95393.34
2018-04-20T14:40:03.771Z,95397.93
2018-04-20T14:42:30.436Z,95404.28
2018-04-20T14:44:57.075Z,95407.34
2018-04-20T14:47:23.684Z,95403.03
2018-04-20T14:49:50.330Z,95406.17
2018-04-20T14:52:17.015Z,95406.08
2018-04-20T14:54:43.650Z,95410.97
2018-04-20T14:57:10.294Z,95419.95
2018-04-20T14:59:36.930Z,95424.77
2018-04-20T15:02:03.562Z,95424.56
2018-04-20T15:04:30.249Z,95412.25
2018-04-20T15:06:56.879Z,95428.03
2018-04-20T15:09:23.548Z,95423.90
2018-04-20T15:11:50.192Z,95423.28
2018-04-20T15:14:16.785Z,95426.00
2018-04-20T15:16:43.464Z,95430.98
2018-04-20T15:19:10.106Z,95431.55
2018-04-20T15:21:36.756Z,95433.23
2018-04-20T15:24:03.356Z,95430.88
2018-04-20T15:26:29.994Z,95430.53
2018-04-20T15:28:56.632Z,95428.55
2018-04-20T15:31:23.301Z,95424.70
2018-04-20T15:33:49.943Z,95432.23
2018-04-20T15:36:16.537Z,95438.68
2018-04-20T15:38:43.214Z,95439.30
2018-04-20T15:41:09.849Z,95442.30
2018-04-20T15:43:36.531Z,95444.50
2018-04-20T15:46:03.157Z,95444.00
2018-04-20T15:48:29.798Z,95445.05
2018-04-20T15:50:56.424Z,95455.23
2018-04-20T15:53:23.098Z,95446.97
2018-04-20T15:55:49.751Z,95450.45
2018-04-20T15:58:16.384Z,95454.69
2018-04-20T16:00:43.055Z,95453.89
2018-04-20T16:03:09.707Z,95452.80
2018-04-20T16:05:36.374Z,95457.41
2018-04-20T16:08:02.979Z,95451.25
2018-04-20T16:10:29.618Z,95452.18
2018-04-20T16:12:56.258Z,95454.25
2018-04-20T16:15:22.929Z,95456.28
2018-04-20T16:17:49.525Z,95466.23
2018-04-20T16:20:16.203Z,95452.09
2018-04-20T16:22:42.840Z,95463.83
2018-04-20T16:25:09.442Z,95462.60
2018-04-20T16:27:36.074Z,95465.80
2018-04-20T16:30:02.740Z,95462.77
2018-04-20T16:32:29.385Z,95464.70
2018-04-20T16:34:55.987Z,95465.64
2018-04-20T16:37:22.659Z,95459.98
2018-04-20T16:39:49.291Z,95456.22
2018-04-20T16:42:15.993Z,95461.50
2018-04-20T16:44:42.664Z,95457.07
2018-04-20T16:47:09.315Z,95463.81
2018-04-20T16:49:35.949Z,95470.05
2018-04-20T16:52:02.619Z,95470.82
2018-04-20T16:54:29.225Z,95475.75
2018-04-20T16:56:55.863Z,95477.02
2018-04-20T16:59:22.538Z,95483.63
2018-04-20T17:01:49.138Z,95485.76
2018-04-20T17:04:15.778Z,95486.30
2018-04-20T17:06:42.406Z,95490.86
2018-04-20T17:09:09.086Z,95497.69
2018-04-20T17:11:35.739Z,95498.07
2018-04-20T17:14:02.358Z,95495.58
2018-04-20T17:16:28.994Z,95499.66
2018-04-20T17:18:55.668Z,95499.41
2018-04-20T17:21:22.309Z,95503.75
2018-04-20T17:23:48.991Z,95502.86
2018-04-20T17:26:15.660Z,95507.19
2018-04-20T17:28:42.287Z,95511.25
2018-04-20T17:31:08.932Z,95510.52
2018-04-20T17:33:35.566Z,95514.44
2018-04-20T17:36:02.252Z,95515.95
2018-04-20T17:38:28.880Z,95520.26
2018-04-20T17:40:55.483Z,95525.61
2018-04-20T17:43:22.166Z,95537.88
2018-04-20T17:45:48.803Z,95543.88
2018-04-20T17:48:15.543Z,95545.27
2018-04-20T17:50:42.139Z,95546.28
2018-04-20T17:53:08.783Z,95552.73
2018-04-20T17:55:35.423Z,95548.77
2018-04-20T17:58:02.074Z,95554.95
2018-04-20T18:00:28.740Z,95554.09
2018-04-20T18:02:55.389Z,95559.14
2018-04-20T18:05:22.018Z,95559.66
2018-04-20T18:07:48.688Z,95563.88
2018-04-20T18:10:15.294Z,95576.12
2018-04-20T18:12:41.961Z,95574.40
2018-04-20T18:15:08.597Z,95581.23
2018-04-20T18:17:35.241Z,95591.84
2018-04-20T18:20:01.912Z,95596.05
2018-04-20T18:22:28.549Z,95589.90
2018-04-20T18:24:55.192Z,95588.51
2018-04-20T18:27:21.908Z,95588.78
2018-04-20T18:29:48.511Z,95592.93
2018-04-20T18:32:15.147Z,95596.59
2018-04-20T18:34:41.812Z,95592.61
2018-04-20T18:37:08.499Z,95600.86
2018-04-20T18:39:35.101Z,95595.89
2018-04-20T18:42:01.773Z,95594.75
2018-04-20T18:44:28.412Z,95598.55
2018-04-20T18:46:55.047Z,95594.94
2018-04-20T18:49:21.728Z,95606.95
2018-04-20T18:51:49.631Z,95613.01
2018-04-20T18:54:15.003Z,95614.55
2018-04-20T18:56:41.639Z,95619.59
2018-04-20T18:59:08.310Z,95617.97
2018-04-20T19:01:34.945Z,95623.18
2018-04-20T19:04:01.584Z,95624.45
2018-04-20T19:06:28.306Z,95619.37
2018-04-20T19:08:54.925Z,95626.97
2018-04-20T19:11:21.528Z,95628.27
2018-04-20T19:13:48.206Z,95632.17
2018-04-20T19:16:14.852Z,95632.41
2018-04-20T19:18:41.526Z,95631.56
2018-04-20T19:21:08.158Z,95628.52
2018-04-20T19:23:34.794Z,95626.13
2018-04-20T19:26:01.467Z,95628.02
2018-04-20T19:28:28.102Z,95631.45
2018-04-20T19:30:54.716Z,95633.50
2018-04-20T19:33:21.346Z,95634.23
2018-04-20T19:35:48.020Z,95630.59
2018-04-20T19:38:14.701Z,95635.89
2018-04-20T19:40:41.303Z,95633.89
2018-04-20T19:43:07.972Z,95631.74
2018-04-20T19:45:34.612Z,95642.09
2018-04-20T19:48:01.210Z,95641.10
2018-04-20T19:50:27.847Z,95636.80
2018-04-20T19:52:54.508Z,95643.13
2018-04-20T19:55:21.148Z,95643.23
2018-04-20T19:57:49.865Z,95644.27
2018-04-20T20:00:14.421Z,95638.10
2018-04-20T20:02:41.057Z,95643.52
2018-04-20T20:05:07.695Z,95646.30
2018-04-20T20:07:34.330Z,95645.42
2018-04-20T20:10:00.934Z,95644.89
2018-04-20T20:12:27.601Z,95640.23
2018-04-20T20:14:54.244Z,95633.53
2018-04-20T20:17:20.889Z,95644.91
2018-04-20T20:19:47.523Z,95645.95
2018-04-20T20:22:14.128Z,95651.98
2018-04-20T20:24:40.809Z,95653.75
2018-04-20T20:27:07.441Z,95648.95
2018-04-20T20:29:34.078Z,95660.45
2018-04-20T20:32:00.740Z,95663.09
2018-04-20T20:34:27.384Z,95661.20
2018-04-20T20:36:53.987Z,95667.52
2018-04-20T20:39:20.658Z,95665.88
2018-04-20T20:41:47.323Z,95658.95
2018-04-20T20:44:13.929Z,95654.41
2018-04-20T20:46:40.554Z,95658.20
2018-04-20T20:49:07.263Z,95666.03
2018-04-20T20:51:33.887Z,95672.44
2018-04-20T20:54:00.532Z,95675.62
2018-04-20T20:56:27.129Z,95679.28
2018-04-20T20:58:53.820Z,95672.59
2018-04-20T21:01:20.494Z,95667.28
2018-04-20T21:03:47.135Z,95676.36
2018-04-20T21:06:13.865Z,95673.09
2018-04-20T21:08:40.533Z,95675.61
2018-04-20T21:11:07.174Z,95677.12
2018-04-20T21:13:33.812Z,95675.86
2018-04-20T21:16:00.421Z,95676.73
2018-04-20T21:18:27.054Z,95671.58
2018-04-20T21:20:53.732Z,95674.72
2018-04-20T21:23:20.367Z,95673.84
2018-04-20T21:25:47.014Z,95678.78
2018-04-20T21:28:13.684Z,95672.47
2018-04-20T21:30:40.316Z,95682.43
2018-04-20T21:33:06.925Z,95672.95
2018-04-20T21:35:33.591Z,95671.32
2018-04-20T21:38:00.228Z,95678.38
2018-04-20T21:40:26.837Z,95674.47
2018-04-20T21:42:53.517Z,95672.20
2018-04-20T21:45:20.240Z,95680.77
2018-04-20T21:47:46.841Z,95683.69
2018-04-20T21:50:13.470Z,95682.55
2018-04-20T21:52:40.101Z,95680.14
2018-04-20T21:55:06.736Z,95685.32
2018-04-20T21:57:33.400Z,95688.73
2018-04-20T22:00:00.028Z,95690.75
2018-04-20T22:02:26.678Z,95698.20
2018-04-20T22:04:53.368Z,95691.13
2018-04-20T22:07:20.008Z,95694.39
2018-04-20T22:09:46.671Z,95695.16
2018-04-20T22:12:13.374Z,95699.32
2018-04-20T22:14:40.002Z,95704.88
2018-04-20T22:17:06.740Z,95709.17
2018-04-20T22:19:33.373Z,95713.44
2018-04-20T22:22:00.045Z,95712.68
2018-04-20T22:24:26.712Z,95709.80
2018-04-20T22:26:53.462Z,95710.80
2018-04-20T22:29:20.122Z,95717.47
2018-04-20T22:31:46.796Z,95709.04
2018-04-20T22:34:13.473Z,95705.48
2018-04-20T22:36:40.180Z,95705.75
2018-04-20T22:39:06.831Z,95701.70
2018-04-20T22:41:33.455Z,95702.35
2018-04-20T22:44:00.087Z,95706.11
2018-04-20T22:46:26.725Z,95706.32
2018-04-20T22:48:53.392Z,95705.86
2018-04-20T22:51:19.997Z,95704.55
2018-04-20T22:53:46.634Z,95700.01
2018-04-20T22:56:13.386Z,95702.68
2018-04-20T22:58:40.028Z,95700.39
2018-04-20T23:01:06.667Z,95694.59
2018-04-20T23:03:33.683Z,95690.68
2018-04-20T23:06:00.366Z,95686.77
2018-04-20T23:08:27.039Z,95686.52
2018-04-20T23:10:53.693Z,95682.61
2018-04-20T23:13:20.330Z,95688.29
2018-04-20T23:15:47.027Z,95687.39
2018-04-20T23:18:13.731Z,95692.18
2018-04-20T23:20:40.424Z,95694.46
2018-04-20T23:23:07.108Z,95695.72
2018-04-20T23:25:33.772Z,95696.58
2018-04-20T23:28:00.453Z,95697.34
2018-04-20T23:30:27.081Z,95697.45
2018-04-20T23:32:53.712Z,95700.74
2018-04-20T23:35:20.370Z,95698.35
2018-04-20T23:37:47.011Z,95696.06
2018-04-20T23:40:13.689Z,95698.59
2018-04-20T23:42:40.356Z,95700.98
2018-04-20T23:45:07.000Z,95706.67
2018-04-20T23:47:33.630Z,95700.47
2018-04-20T23:50:00.287Z,95704.38
2018-04-20T23:52:26.896Z,95710.80
2018-04-20T23:54:53.574Z,95701.85
2018-04-20T23:57:20.202Z,95701.98
2018-04-20T23:59:46.863Z,95701.47
